sensor_id;sensor_type;location;lat;lon;timestamp;temperature;humidity
38788;DHT22;24536;45.488;12.238;2024-01-30T00:00:42;6.00;95.60
38788;DHT22;24536;45.488;12.238;2024-01-30T00:03:08;5.80;95.70
38788;DHT22;24536;45.488;12.238;2024-01-30T00:05:34;5.80;95.80
38788;DHT22;24536;45.488;12.238;2024-01-30T00:07:59;5.70;95.80
38788;DHT22;24536;45.488;12.238;2024-01-30T00:10:25;5.70;95.80
38788;DHT22;24536;45.488;12.238;2024-01-30T00:12:51;5.70;95.80
38788;DHT22;24536;45.488;12.238;2024-01-30T00:15:17;5.70;95.80
38788;DHT22;24536;45.488;12.238;2024-01-30T00:17:43;5.70;95.60
38788;DHT22;24536;45.488;12.238;2024-01-30T00:20:09;5.50;95.50
38788;DHT22;24536;45.488;12.238;2024-01-30T00:22:35;5.40;95.80
38788;DHT22;24536;45.488;12.238;2024-01-30T00:25:01;5.40;95.80
38788;DHT22;24536;45.488;12.238;2024-01-30T00:27:26;5.30;95.70
38788;DHT22;24536;45.488;12.238;2024-01-30T00:29:53;5.30;95.70
38788;DHT22;24536;45.488;12.238;2024-01-30T00:32:18;5.30;95.50
38788;DHT22;24536;45.488;12.238;2024-01-30T00:34:45;5.20;95.50
38788;DHT22;24536;45.488;12.238;2024-01-30T00:37:10;5.10;95.60
38788;DHT22;24536;45.488;12.238;2024-01-30T00:39:36;5.10;95.50
38788;DHT22;24536;45.488;12.238;2024-01-30T00:42:02;5.00;95.60
38788;DHT22;24536;45.488;12.238;2024-01-30T00:44:27;5.00;95.60
38788;DHT22;24536;45.488;12.238;2024-01-30T00:46:53;4.80;95.70
38788;DHT22;24536;45.488;12.238;2024-01-30T00:49:19;4.80;95.70
38788;DHT22;24536;45.488;12.238;2024-01-30T00:51:45;4.60;95.80
38788;DHT22;24536;45.488;12.238;2024-01-30T00:54:11;4.60;95.90
38788;DHT22;24536;45.488;12.238;2024-01-30T00:56:37;4.70;95.90
38788;DHT22;24536;45.488;12.238;2024-01-30T00:59:02;4.70;95.80
38788;DHT22;24536;45.488;12.238;2024-01-30T01:01:28;4.70;95.80
38788;DHT22;24536;45.488;12.238;2024-01-30T01:03:54;4.70;95.70
38788;DHT22;24536;45.488;12.238;2024-01-30T01:06:19;4.70;95.70
38788;DHT22;24536;45.488;12.238;2024-01-30T01:08:45;4.70;95.60
38788;DHT22;24536;45.488;12.238;2024-01-30T01:11:11;4.80;95.60
38788;DHT22;24536;45.488;12.238;2024-01-30T01:13:36;4.80;95.50
38788;DHT22;24536;45.488;12.238;2024-01-30T01:16:02;4.70;95.50
38788;DHT22;24536;45.488;12.238;2024-01-30T01:18:29;4.80;95.40
38788;DHT22;24536;45.488;12.238;2024-01-30T01:20:54;4.70;95.20
38788;DHT22;24536;45.488;12.238;2024-01-30T01:23:20;4.60;95.10
38788;DHT22;24536;45.488;12.238;2024-01-30T01:25:46;4.60;95.30
38788;DHT22;24536;45.488;12.238;2024-01-30T01:28:11;4.50;95.30
38788;DHT22;24536;45.488;12.238;2024-01-30T01:30:38;4.50;95.30
38788;DHT22;24536;45.488;12.238;2024-01-30T01:33:04;4.50;95.40
38788;DHT22;24536;45.488;12.238;2024-01-30T01:35:32;4.50;95.30
38788;DHT22;24536;45.488;12.238;2024-01-30T01:37:57;4.40;95.40
38788;DHT22;24536;45.488;12.238;2024-01-30T01:40:27;4.40;95.40
38788;DHT22;24536;45.488;12.238;2024-01-30T01:42:54;4.50;95.40
38788;DHT22;24536;45.488;12.238;2024-01-30T01:45:20;4.50;95.40
38788;DHT22;24536;45.488;12.238;2024-01-30T01:47:48;4.50;95.40
38788;DHT22;24536;45.488;12.238;2024-01-30T01:50:16;4.50;95.40
38788;DHT22;24536;45.488;12.238;2024-01-30T01:52:48;4.50;95.40
38788;DHT22;24536;45.488;12.238;2024-01-30T01:55:15;4.50;95.40
38788;DHT22;24536;45.488;12.238;2024-01-30T01:57:42;4.50;95.50
38788;DHT22;24536;45.488;12.238;2024-01-30T02:00:08;4.50;95.40
38788;DHT22;24536;45.488;12.238;2024-01-30T02:02:36;4.50;95.40
38788;DHT22;24536;45.488;12.238;2024-01-30T02:05:02;4.40;95.40
38788;DHT22;24536;45.488;12.238;2024-01-30T02:07:28;4.40;95.50
38788;DHT22;24536;45.488;12.238;2024-01-30T02:09:55;4.50;95.50
38788;DHT22;24536;45.488;12.238;2024-01-30T02:12:20;4.50;95.40
38788;DHT22;24536;45.488;12.238;2024-01-30T02:14:49;4.50;95.40
38788;DHT22;24536;45.488;12.238;2024-01-30T02:17:16;4.50;95.30
38788;DHT22;24536;45.488;12.238;2024-01-30T02:19:41;4.40;95.20
38788;DHT22;24536;45.488;12.238;2024-01-30T02:22:08;4.40;95.20
38788;DHT22;24536;45.488;12.238;2024-01-30T02:24:34;4.30;95.20
38788;DHT22;24536;45.488;12.238;2024-01-30T02:27:00;4.30;95.20
38788;DHT22;24536;45.488;12.238;2024-01-30T02:29:25;4.20;95.10
38788;DHT22;24536;45.488;12.238;2024-01-30T02:31:51;4.20;95.10
38788;DHT22;24536;45.488;12.238;2024-01-30T02:34:18;4.20;95.10
38788;DHT22;24536;45.488;12.238;2024-01-30T02:36:45;4.20;95.10
38788;DHT22;24536;45.488;12.238;2024-01-30T02:39:11;4.20;95.10
38788;DHT22;24536;45.488;12.238;2024-01-30T02:41:37;4.10;95.10
38788;DHT22;24536;45.488;12.238;2024-01-30T02:44:03;4.00;95.00
38788;DHT22;24536;45.488;12.238;2024-01-30T02:46:29;4.00;95.10
38788;DHT22;24536;45.488;12.238;2024-01-30T02:48:55;4.10;95.10
38788;DHT22;24536;45.488;12.238;2024-01-30T02:51:21;4.00;95.10
38788;DHT22;24536;45.488;12.238;2024-01-30T02:53:47;4.10;95.10
38788;DHT22;24536;45.488;12.238;2024-01-30T02:56:13;4.10;95.00
38788;DHT22;24536;45.488;12.238;2024-01-30T02:58:39;4.10;95.00
38788;DHT22;24536;45.488;12.238;2024-01-30T03:01:06;4.20;95.00
38788;DHT22;24536;45.488;12.238;2024-01-30T03:03:32;4.20;94.80
38788;DHT22;24536;45.488;12.238;2024-01-30T03:05:59;4.20;94.80
38788;DHT22;24536;45.488;12.238;2024-01-30T03:08:25;4.10;94.80
38788;DHT22;24536;45.488;12.238;2024-01-30T03:10:51;4.10;94.80
38788;DHT22;24536;45.488;12.238;2024-01-30T03:13:16;4.10;94.80
38788;DHT22;24536;45.488;12.238;2024-01-30T03:15:42;4.10;94.80
38788;DHT22;24536;45.488;12.238;2024-01-30T03:18:08;4.10;94.90
38788;DHT22;24536;45.488;12.238;2024-01-30T03:20:34;4.10;94.90
38788;DHT22;24536;45.488;12.238;2024-01-30T03:23:00;4.10;94.80
38788;DHT22;24536;45.488;12.238;2024-01-30T03:25:25;4.10;95.10
38788;DHT22;24536;45.488;12.238;2024-01-30T03:27:51;4.10;94.80
38788;DHT22;24536;45.488;12.238;2024-01-30T03:30:17;4.10;94.80
38788;DHT22;24536;45.488;12.238;2024-01-30T03:32:43;4.10;94.80
38788;DHT22;24536;45.488;12.238;2024-01-30T03:35:09;4.10;94.80
38788;DHT22;24536;45.488;12.238;2024-01-30T03:37:35;4.20;94.80
38788;DHT22;24536;45.488;12.238;2024-01-30T03:40:02;4.10;94.60
38788;DHT22;24536;45.488;12.238;2024-01-30T03:42:28;4.10;94.60
38788;DHT22;24536;45.488;12.238;2024-01-30T03:44:53;4.00;94.70
38788;DHT22;24536;45.488;12.238;2024-01-30T03:47:20;3.90;94.80
38788;DHT22;24536;45.488;12.238;2024-01-30T03:49:46;3.90;94.90
38788;DHT22;24536;45.488;12.238;2024-01-30T03:52:12;4.00;94.90
38788;DHT22;24536;45.488;12.238;2024-01-30T03:54:38;3.90;94.80
38788;DHT22;24536;45.488;12.238;2024-01-30T03:57:04;3.80;94.90
38788;DHT22;24536;45.488;12.238;2024-01-30T03:59:29;3.80;95.00
38788;DHT22;24536;45.488;12.238;2024-01-30T04:01:55;3.80;95.00
38788;DHT22;24536;45.488;12.238;2024-01-30T04:04:21;3.90;95.00
38788;DHT22;24536;45.488;12.238;2024-01-30T04:06:47;3.90;94.90
38788;DHT22;24536;45.488;12.238;2024-01-30T04:09:13;3.90;94.80
38788;DHT22;24536;45.488;12.238;2024-01-30T04:11:39;3.90;94.80
38788;DHT22;24536;45.488;12.238;2024-01-30T04:14:05;3.90;94.90
38788;DHT22;24536;45.488;12.238;2024-01-30T04:16:31;3.90;94.90
38788;DHT22;24536;45.488;12.238;2024-01-30T04:18:58;3.90;94.90
38788;DHT22;24536;45.488;12.238;2024-01-30T04:21:23;3.90;95.00
38788;DHT22;24536;45.488;12.238;2024-01-30T04:23:51;4.00;94.90
38788;DHT22;24536;45.488;12.238;2024-01-30T04:26:16;4.00;94.80
38788;DHT22;24536;45.488;12.238;2024-01-30T04:28:43;4.00;94.70
38788;DHT22;24536;45.488;12.238;2024-01-30T04:31:09;3.80;94.70
38788;DHT22;24536;45.488;12.238;2024-01-30T04:33:36;3.70;94.50
38788;DHT22;24536;45.488;12.238;2024-01-30T04:36:01;3.70;94.70
38788;DHT22;24536;45.488;12.238;2024-01-30T04:38:28;3.60;94.70
38788;DHT22;24536;45.488;12.238;2024-01-30T04:40:54;3.60;94.80
38788;DHT22;24536;45.488;12.238;2024-01-30T04:43:20;3.70;94.80
38788;DHT22;24536;45.488;12.238;2024-01-30T04:45:46;3.70;94.70
38788;DHT22;24536;45.488;12.238;2024-01-30T04:48:11;3.60;94.60
38788;DHT22;24536;45.488;12.238;2024-01-30T04:50:37;3.60;94.60
38788;DHT22;24536;45.488;12.238;2024-01-30T04:53:03;3.50;94.60
38788;DHT22;24536;45.488;12.238;2024-01-30T04:55:28;3.50;94.70
38788;DHT22;24536;45.488;12.238;2024-01-30T04:57:54;3.60;94.60
38788;DHT22;24536;45.488;12.238;2024-01-30T05:00:20;3.50;94.50
38788;DHT22;24536;45.488;12.238;2024-01-30T05:02:45;3.50;94.50
38788;DHT22;24536;45.488;12.238;2024-01-30T05:05:11;3.50;94.60
38788;DHT22;24536;45.488;12.238;2024-01-30T05:07:37;3.50;94.50
38788;DHT22;24536;45.488;12.238;2024-01-30T05:10:03;3.50;94.40
38788;DHT22;24536;45.488;12.238;2024-01-30T05:12:28;3.40;94.40
38788;DHT22;24536;45.488;12.238;2024-01-30T05:14:54;3.40;94.40
38788;DHT22;24536;45.488;12.238;2024-01-30T05:17:20;3.40;94.40
38788;DHT22;24536;45.488;12.238;2024-01-30T05:19:46;3.40;94.50
38788;DHT22;24536;45.488;12.238;2024-01-30T05:22:12;3.50;94.50
38788;DHT22;24536;45.488;12.238;2024-01-30T05:24:41;3.30;94.10
38788;DHT22;24536;45.488;12.238;2024-01-30T05:27:08;3.30;94.30
38788;DHT22;24536;45.488;12.238;2024-01-30T05:29:34;3.20;94.40
38788;DHT22;24536;45.488;12.238;2024-01-30T05:31:59;3.20;94.40
38788;DHT22;24536;45.488;12.238;2024-01-30T05:34:25;3.20;94.50
38788;DHT22;24536;45.488;12.238;2024-01-30T05:36:51;3.20;94.60
38788;DHT22;24536;45.488;12.238;2024-01-30T05:39:16;3.30;94.50
38788;DHT22;24536;45.488;12.238;2024-01-30T05:41:42;3.30;94.30
38788;DHT22;24536;45.488;12.238;2024-01-30T05:44:07;3.30;94.20
38788;DHT22;24536;45.488;12.238;2024-01-30T05:46:35;3.30;94.20
38788;DHT22;24536;45.488;12.238;2024-01-30T05:49:00;3.30;94.30
38788;DHT22;24536;45.488;12.238;2024-01-30T05:51:26;3.30;94.20
38788;DHT22;24536;45.488;12.238;2024-01-30T05:53:53;3.20;94.20
38788;DHT22;24536;45.488;12.238;2024-01-30T05:56:19;3.10;94.30
38788;DHT22;24536;45.488;12.238;2024-01-30T05:58:44;3.10;94.40
38788;DHT22;24536;45.488;12.238;2024-01-30T06:01:10;3.00;94.50
38788;DHT22;24536;45.488;12.238;2024-01-30T06:03:36;3.00;94.70
38788;DHT22;24536;45.488;12.238;2024-01-30T06:06:02;3.00;94.40
38788;DHT22;24536;45.488;12.238;2024-01-30T06:08:27;2.70;94.70
38788;DHT22;24536;45.488;12.238;2024-01-30T06:10:53;2.70;95.00
38788;DHT22;24536;45.488;12.238;2024-01-30T06:13:19;2.70;94.90
38788;DHT22;24536;45.488;12.238;2024-01-30T06:15:45;2.60;95.30
38788;DHT22;24536;45.488;12.238;2024-01-30T06:18:10;2.70;95.20
38788;DHT22;24536;45.488;12.238;2024-01-30T06:20:36;2.80;95.30
38788;DHT22;24536;45.488;12.238;2024-01-30T06:23:02;2.80;95.00
38788;DHT22;24536;45.488;12.238;2024-01-30T06:25:27;2.90;95.00
38788;DHT22;24536;45.488;12.238;2024-01-30T06:27:53;3.00;95.10
38788;DHT22;24536;45.488;12.238;2024-01-30T06:30:19;3.20;94.90
38788;DHT22;24536;45.488;12.238;2024-01-30T06:32:44;3.20;94.60
38788;DHT22;24536;45.488;12.238;2024-01-30T06:35:10;3.20;94.50
38788;DHT22;24536;45.488;12.238;2024-01-30T06:37:36;3.20;94.40
38788;DHT22;24536;45.488;12.238;2024-01-30T06:40:02;3.20;94.50
38788;DHT22;24536;45.488;12.238;2024-01-30T06:42:30;3.00;94.40
38788;DHT22;24536;45.488;12.238;2024-01-30T06:44:56;3.00;94.60
38788;DHT22;24536;45.488;12.238;2024-01-30T06:47:21;3.00;94.60
38788;DHT22;24536;45.488;12.238;2024-01-30T06:49:47;3.00;94.70
38788;DHT22;24536;45.488;12.238;2024-01-30T06:52:13;2.90;94.80
38788;DHT22;24536;45.488;12.238;2024-01-30T06:54:39;3.00;94.80
38788;DHT22;24536;45.488;12.238;2024-01-30T06:57:05;3.00;94.70
38788;DHT22;24536;45.488;12.238;2024-01-30T06:59:37;3.10;94.90
38788;DHT22;24536;45.488;12.238;2024-01-30T07:02:02;3.20;94.70
38788;DHT22;24536;45.488;12.238;2024-01-30T07:04:28;3.20;94.60
38788;DHT22;24536;45.488;12.238;2024-01-30T07:06:54;3.30;94.60
38788;DHT22;24536;45.488;12.238;2024-01-30T07:09:19;3.30;94.20
38788;DHT22;24536;45.488;12.238;2024-01-30T07:11:45;3.30;94.40
38788;DHT22;24536;45.488;12.238;2024-01-30T07:14:11;3.30;94.30
38788;DHT22;24536;45.488;12.238;2024-01-30T07:16:37;3.30;94.30
38788;DHT22;24536;45.488;12.238;2024-01-30T07:19:02;3.30;94.20
38788;DHT22;24536;45.488;12.238;2024-01-30T07:21:28;3.30;94.20
38788;DHT22;24536;45.488;12.238;2024-01-30T07:23:54;3.30;94.20
38788;DHT22;24536;45.488;12.238;2024-01-30T07:26:20;3.30;94.10
38788;DHT22;24536;45.488;12.238;2024-01-30T07:28:46;3.30;94.20
38788;DHT22;24536;45.488;12.238;2024-01-30T07:31:22;3.10;94.20
38788;DHT22;24536;45.488;12.238;2024-01-30T07:33:48;3.00;94.40
38788;DHT22;24536;45.488;12.238;2024-01-30T07:36:14;3.00;94.70
38788;DHT22;24536;45.488;12.238;2024-01-30T07:38:40;2.80;94.80
38788;DHT22;24536;45.488;12.238;2024-01-30T07:41:06;2.90;94.80
38788;DHT22;24536;45.488;12.238;2024-01-30T07:43:34;3.00;94.80
38788;DHT22;24536;45.488;12.238;2024-01-30T07:46:01;3.10;94.70
38788;DHT22;24536;45.488;12.238;2024-01-30T07:48:28;3.10;94.50
38788;DHT22;24536;45.488;12.238;2024-01-30T07:50:54;3.10;94.70
38788;DHT22;24536;45.488;12.238;2024-01-30T07:53:19;3.20;94.70
38788;DHT22;24536;45.488;12.238;2024-01-30T07:55:48;3.10;94.60
38788;DHT22;24536;45.488;12.238;2024-01-30T07:58:14;3.10;94.90
38788;DHT22;24536;45.488;12.238;2024-01-30T08:00:39;3.00;94.70
38788;DHT22;24536;45.488;12.238;2024-01-30T08:03:05;3.10;94.90
38788;DHT22;24536;45.488;12.238;2024-01-30T08:05:31;3.20;94.90
38788;DHT22;24536;45.488;12.238;2024-01-30T08:07:57;3.20;94.90
38788;DHT22;24536;45.488;12.238;2024-01-30T08:10:22;3.20;94.90
38788;DHT22;24536;45.488;12.238;2024-01-30T08:12:48;3.30;94.80
38788;DHT22;24536;45.488;12.238;2024-01-30T08:15:19;3.40;94.70
38788;DHT22;24536;45.488;12.238;2024-01-30T08:17:45;3.50;94.70
38788;DHT22;24536;45.488;12.238;2024-01-30T08:20:11;3.60;94.60
38788;DHT22;24536;45.488;12.238;2024-01-30T08:22:38;3.70;94.50
38788;DHT22;24536;45.488;12.238;2024-01-30T08:25:06;3.70;94.40
38788;DHT22;24536;45.488;12.238;2024-01-30T08:27:31;3.80;94.40
38788;DHT22;24536;45.488;12.238;2024-01-30T08:29:57;3.90;94.40
38788;DHT22;24536;45.488;12.238;2024-01-30T08:32:23;4.00;94.40
38788;DHT22;24536;45.488;12.238;2024-01-30T08:34:49;4.10;94.30
38788;DHT22;24536;45.488;12.238;2024-01-30T08:37:15;4.30;94.20
38788;DHT22;24536;45.488;12.238;2024-01-30T08:39:43;4.40;94.10
38788;DHT22;24536;45.488;12.238;2024-01-30T08:42:08;4.50;93.90
38788;DHT22;24536;45.488;12.238;2024-01-30T08:44:34;4.60;93.90
38788;DHT22;24536;45.488;12.238;2024-01-30T08:47:10;4.70;93.80
38788;DHT22;24536;45.488;12.238;2024-01-30T08:49:45;4.90;93.70
38788;DHT22;24536;45.488;12.238;2024-01-30T08:52:11;5.10;93.60
38788;DHT22;24536;45.488;12.238;2024-01-30T08:54:58;5.00;93.20
38788;DHT22;24536;45.488;12.238;2024-01-30T08:57:24;5.10;93.50
38788;DHT22;24536;45.488;12.238;2024-01-30T08:59:49;5.30;93.50
38788;DHT22;24536;45.488;12.238;2024-01-30T09:02:15;5.60;93.40
38788;DHT22;24536;45.488;12.238;2024-01-30T09:04:43;5.80;93.20
38788;DHT22;24536;45.488;12.238;2024-01-30T09:07:09;6.00;92.90
38788;DHT22;24536;45.488;12.238;2024-01-30T09:09:37;6.20;92.70
38788;DHT22;24536;45.488;12.238;2024-01-30T09:12:03;6.40;92.50
38788;DHT22;24536;45.488;12.238;2024-01-30T09:14:38;6.60;92.40
38788;DHT22;24536;45.488;12.238;2024-01-30T09:17:04;6.70;91.60
38788;DHT22;24536;45.488;12.238;2024-01-30T09:19:30;6.70;92.00
38788;DHT22;24536;45.488;12.238;2024-01-30T09:21:56;6.80;91.60
38788;DHT22;24536;45.488;12.238;2024-01-30T09:24:26;7.00;91.90
38788;DHT22;24536;45.488;12.238;2024-01-30T09:26:52;7.00;91.50
38788;DHT22;24536;45.488;12.238;2024-01-30T09:29:21;7.20;91.80
38788;DHT22;24536;45.488;12.238;2024-01-30T09:31:49;7.30;90.60
38788;DHT22;24536;45.488;12.238;2024-01-30T09:34:15;7.50;90.60
38788;DHT22;24536;45.488;12.238;2024-01-30T09:36:41;7.60;91.10
38788;DHT22;24536;45.488;12.238;2024-01-30T09:39:10;7.80;91.00
38788;DHT22;24536;45.488;12.238;2024-01-30T09:44:29;8.30;90.80
38788;DHT22;24536;45.488;12.238;2024-01-30T09:46:56;8.60;90.50
38788;DHT22;24536;45.488;12.238;2024-01-30T09:49:30;8.80;90.20
38788;DHT22;24536;45.488;12.238;2024-01-30T09:51:57;8.90;87.00
38788;DHT22;24536;45.488;12.238;2024-01-30T09:54:28;9.00;88.80
38788;DHT22;24536;45.488;12.238;2024-01-30T09:56:54;9.10;86.50
38788;DHT22;24536;45.488;12.238;2024-01-30T09:59:20;9.10;88.00
38788;DHT22;24536;45.488;12.238;2024-01-30T10:01:45;9.20;87.50
38788;DHT22;24536;45.488;12.238;2024-01-30T10:04:26;9.40;88.10
38788;DHT22;24536;45.488;12.238;2024-01-30T10:06:51;9.60;87.90
38788;DHT22;24536;45.488;12.238;2024-01-30T10:09:17;9.80;87.40
38788;DHT22;24536;45.488;12.238;2024-01-30T10:11:43;10.00;87.40
38788;DHT22;24536;45.488;12.238;2024-01-30T10:14:12;10.20;86.80
38788;DHT22;24536;45.488;12.238;2024-01-30T10:16:41;10.30;85.60
38788;DHT22;24536;45.488;12.238;2024-01-30T10:19:07;10.50;87.60
38788;DHT22;24536;45.488;12.238;2024-01-30T10:21:33;10.60;82.50
38788;DHT22;24536;45.488;12.238;2024-01-30T10:23:59;10.50;82.60
38788;DHT22;24536;45.488;12.238;2024-01-30T10:26:24;10.50;85.30
38788;DHT22;24536;45.488;12.238;2024-01-30T10:28:54;10.70;81.90
38788;DHT22;24536;45.488;12.238;2024-01-30T10:31:20;10.70;83.10
38788;DHT22;24536;45.488;12.238;2024-01-30T10:33:45;10.70;82.20
38788;DHT22;24536;45.488;12.238;2024-01-30T10:36:13;10.80;83.40
38788;DHT22;24536;45.488;12.238;2024-01-30T10:38:41;10.80;82.80
38788;DHT22;24536;45.488;12.238;2024-01-30T10:41:08;10.90;84.00
38788;DHT22;24536;45.488;12.238;2024-01-30T10:43:41;11.00;81.70
38788;DHT22;24536;45.488;12.238;2024-01-30T10:46:20;11.00;82.70
38788;DHT22;24536;45.488;12.238;2024-01-30T10:48:58;11.00;80.40
38788;DHT22;24536;45.488;12.238;2024-01-30T10:51:26;11.00;80.80
38788;DHT22;24536;45.488;12.238;2024-01-30T10:53:53;11.20;83.20
38788;DHT22;24536;45.488;12.238;2024-01-30T10:56:21;11.20;82.00
38788;DHT22;24536;45.488;12.238;2024-01-30T10:58:54;11.50;81.90
38788;DHT22;24536;45.488;12.238;2024-01-30T11:01:22;11.80;81.20
38788;DHT22;24536;45.488;12.238;2024-01-30T11:03:52;11.80;78.80
38788;DHT22;24536;45.488;12.238;2024-01-30T11:06:17;12.00;80.20
38788;DHT22;24536;45.488;12.238;2024-01-30T11:08:47;12.20;80.60
38788;DHT22;24536;45.488;12.238;2024-01-30T11:11:25;12.40;80.20
38788;DHT22;24536;45.488;12.238;2024-01-30T11:13:50;12.60;78.90
38788;DHT22;24536;45.488;12.238;2024-01-30T11:16:17;12.70;80.00
38788;DHT22;24536;45.488;12.238;2024-01-30T11:18:42;12.80;77.00
38788;DHT22;24536;45.488;12.238;2024-01-30T11:21:08;12.80;78.40
38788;DHT22;24536;45.488;12.238;2024-01-30T11:23:34;12.80;78.80
38788;DHT22;24536;45.488;12.238;2024-01-30T11:26:01;12.90;79.40
38788;DHT22;24536;45.488;12.238;2024-01-30T11:28:33;13.20;79.80
38788;DHT22;24536;45.488;12.238;2024-01-30T11:31:08;13.60;79.60
38788;DHT22;24536;45.488;12.238;2024-01-30T11:33:35;13.70;74.80
38788;DHT22;24536;45.488;12.238;2024-01-30T11:36:01;13.70;75.50
38788;DHT22;24536;45.488;12.238;2024-01-30T11:38:28;13.80;75.40
38788;DHT22;24536;45.488;12.238;2024-01-30T11:40:54;13.90;77.50
38788;DHT22;24536;45.488;12.238;2024-01-30T11:43:23;14.10;77.70
38788;DHT22;24536;45.488;12.238;2024-01-30T11:45:50;14.40;77.90
38788;DHT22;24536;45.488;12.238;2024-01-30T11:48:22;14.70;77.50
38788;DHT22;24536;45.488;12.238;2024-01-30T11:50:48;15.20;77.30
38788;DHT22;24536;45.488;12.238;2024-01-30T11:53:16;15.70;76.40
38788;DHT22;24536;45.488;12.238;2024-01-30T11:55:41;16.40;76.10
38788;DHT22;24536;45.488;12.238;2024-01-30T11:58:08;17.60;73.80
38788;DHT22;24536;45.488;12.238;2024-01-30T12:00:35;19.00;70.50
38788;DHT22;24536;45.488;12.238;2024-01-30T12:03:01;19.90;66.20
38788;DHT22;24536;45.488;12.238;2024-01-30T12:05:28;21.00;63.70
38788;DHT22;24536;45.488;12.238;2024-01-30T12:07:54;21.90;60.00
38788;DHT22;24536;45.488;12.238;2024-01-30T12:10:30;22.50;57.20
38788;DHT22;24536;45.488;12.238;2024-01-30T12:12:56;23.20;54.30
38788;DHT22;24536;45.488;12.238;2024-01-30T12:15:22;23.70;53.00
38788;DHT22;24536;45.488;12.238;2024-01-30T12:17:48;24.20;51.30
38788;DHT22;24536;45.488;12.238;2024-01-30T12:20:17;24.50;50.20
38788;DHT22;24536;45.488;12.238;2024-01-30T12:22:44;24.50;49.30
38788;DHT22;24536;45.488;12.238;2024-01-30T12:25:20;24.30;48.60
38788;DHT22;24536;45.488;12.238;2024-01-30T12:27:48;24.40;48.70
38788;DHT22;24536;45.488;12.238;2024-01-30T12:30:15;24.70;48.40
38788;DHT22;24536;45.488;12.238;2024-01-30T12:32:45;25.20;47.20
38788;DHT22;24536;45.488;12.238;2024-01-30T12:35:13;25.60;46.60
38788;DHT22;24536;45.488;12.238;2024-01-30T12:37:40;25.80;46.20
38788;DHT22;24536;45.488;12.238;2024-01-30T12:40:09;25.70;45.50
38788;DHT22;24536;45.488;12.238;2024-01-30T12:42:38;25.70;44.90
38788;DHT22;24536;45.488;12.238;2024-01-30T12:45:05;25.60;44.70
38788;DHT22;24536;45.488;12.238;2024-01-30T12:47:31;25.40;45.10
38788;DHT22;24536;45.488;12.238;2024-01-30T12:49:57;25.10;45.40
38788;DHT22;24536;45.488;12.238;2024-01-30T12:52:23;24.50;44.00
38788;DHT22;24536;45.488;12.238;2024-01-30T12:54:49;23.90;46.10
38788;DHT22;24536;45.488;12.238;2024-01-30T12:57:15;23.50;44.80
38788;DHT22;24536;45.488;12.238;2024-01-30T12:59:42;23.10;46.80
38788;DHT22;24536;45.488;12.238;2024-01-30T13:02:08;23.00;47.00
38788;DHT22;24536;45.488;12.238;2024-01-30T13:04:34;22.90;47.50
38788;DHT22;24536;45.488;12.238;2024-01-30T13:07:00;22.80;47.40
38788;DHT22;24536;45.488;12.238;2024-01-30T13:09:26;23.00;47.20
38788;DHT22;24536;45.488;12.238;2024-01-30T13:11:52;23.10;47.30
38788;DHT22;24536;45.488;12.238;2024-01-30T13:14:19;23.20;47.30
38788;DHT22;24536;45.488;12.238;2024-01-30T13:16:45;23.40;47.50
38788;DHT22;24536;45.488;12.238;2024-01-30T13:19:10;23.70;47.00
38788;DHT22;24536;45.488;12.238;2024-01-30T13:21:36;23.70;46.80
38788;DHT22;24536;45.488;12.238;2024-01-30T13:24:02;23.80;46.60
38788;DHT22;24536;45.488;12.238;2024-01-30T13:26:28;23.70;46.20
38788;DHT22;24536;45.488;12.238;2024-01-30T13:28:54;23.40;45.70
38788;DHT22;24536;45.488;12.238;2024-01-30T13:31:23;23.20;46.20
38788;DHT22;24536;45.488;12.238;2024-01-30T13:33:48;22.60;46.70
38788;DHT22;24536;45.488;12.238;2024-01-30T13:36:15;21.90;47.60
38788;DHT22;24536;45.488;12.238;2024-01-30T13:38:40;21.20;48.90
38788;DHT22;24536;45.488;12.238;2024-01-30T13:41:06;20.60;50.70
38788;DHT22;24536;45.488;12.238;2024-01-30T13:43:32;19.80;51.00
38788;DHT22;24536;45.488;12.238;2024-01-30T13:45:59;19.20;52.00
38788;DHT22;24536;45.488;12.238;2024-01-30T13:48:24;18.50;53.50
38788;DHT22;24536;45.488;12.238;2024-01-30T13:50:50;17.90;54.30
38788;DHT22;24536;45.488;12.238;2024-01-30T13:53:16;17.50;55.10
38788;DHT22;24536;45.488;12.238;2024-01-30T13:55:42;17.10;55.60
38788;DHT22;24536;45.488;12.238;2024-01-30T13:58:07;16.80;56.40
38788;DHT22;24536;45.488;12.238;2024-01-30T14:00:33;16.50;56.70
38788;DHT22;24536;45.488;12.238;2024-01-30T14:02:59;16.20;56.70
38788;DHT22;24536;45.488;12.238;2024-01-30T14:05:26;16.00;57.00
38788;DHT22;24536;45.488;12.238;2024-01-30T14:07:53;15.90;57.50
38788;DHT22;24536;45.488;12.238;2024-01-30T14:10:19;15.80;57.80
38788;DHT22;24536;45.488;12.238;2024-01-30T14:12:45;15.50;57.50
38788;DHT22;24536;45.488;12.238;2024-01-30T14:15:14;15.40;58.30
38788;DHT22;24536;45.488;12.238;2024-01-30T14:17:44;15.30;58.70
38788;DHT22;24536;45.488;12.238;2024-01-30T14:20:10;15.10;59.60
38788;DHT22;24536;45.488;12.238;2024-01-30T14:22:37;15.10;60.00
38788;DHT22;24536;45.488;12.238;2024-01-30T14:25:03;15.00;59.80
38788;DHT22;24536;45.488;12.238;2024-01-30T14:27:29;14.90;60.10
38788;DHT22;24536;45.488;12.238;2024-01-30T14:29:56;14.80;60.60
38788;DHT22;24536;45.488;12.238;2024-01-30T14:32:23;14.80;61.30
38788;DHT22;24536;45.488;12.238;2024-01-30T14:34:49;14.60;61.60
38788;DHT22;24536;45.488;12.238;2024-01-30T14:37:15;14.60;63.30
38788;DHT22;24536;45.488;12.238;2024-01-30T14:39:42;14.50;64.60
38788;DHT22;24536;45.488;12.238;2024-01-30T14:42:07;14.50;65.90
38788;DHT22;24536;45.488;12.238;2024-01-30T14:44:33;14.40;66.80
38788;DHT22;24536;45.488;12.238;2024-01-30T14:47:00;14.40;67.70
38788;DHT22;24536;45.488;12.238;2024-01-30T14:49:26;14.30;68.30
38788;DHT22;24536;45.488;12.238;2024-01-30T14:51:51;14.10;69.20
38788;DHT22;24536;45.488;12.238;2024-01-30T14:54:17;14.00;70.00
38788;DHT22;24536;45.488;12.238;2024-01-30T14:56:44;14.00;71.00
38788;DHT22;24536;45.488;12.238;2024-01-30T14:59:10;13.90;71.50
38788;DHT22;24536;45.488;12.238;2024-01-30T15:01:35;13.80;72.50
38788;DHT22;24536;45.488;12.238;2024-01-30T15:04:01;13.70;73.10
38788;DHT22;24536;45.488;12.238;2024-01-30T15:06:28;13.60;72.90
38788;DHT22;24536;45.488;12.238;2024-01-30T15:08:54;13.50;73.40
38788;DHT22;24536;45.488;12.238;2024-01-30T15:11:20;13.40;74.60
38788;DHT22;24536;45.488;12.238;2024-01-30T15:13:46;13.30;74.40
38788;DHT22;24536;45.488;12.238;2024-01-30T15:16:12;13.20;75.90
38788;DHT22;24536;45.488;12.238;2024-01-30T15:18:37;13.10;75.70
38788;DHT22;24536;45.488;12.238;2024-01-30T15:21:03;13.10;76.20
38788;DHT22;24536;45.488;12.238;2024-01-30T15:23:29;13.00;76.70